Time;durP1;ratioP1;P1;durP2;ratioP2;P2;SDS_P1;SDS_P2;PMS_P1;PMS_P2;Temp;Humidity;BMP_temperature;BMP_pressure;BME280_temperature;BME280_humidity;BME280_pressure;Samples;Min_cycle;Max_cycle;Signal;HPM_P1;HPM_P2
2021/04/30 00:01:41;;;;;;;133.23;49.05;;;7.00;99.30;;;;;;5024779;28;20510;-80
2021/04/30 00:04:06;;;;;;;95.78;48.25;;;6.90;99.20;;;;;;5011325;28;20115;-79
2021/04/30 00:06:32;;;;;;;98.65;46.88;;;6.90;99.50;;;;;;5028352;28;20470;-80
2021/04/30 00:08:58;;;;;;;104.53;49.65;;;6.90;99.20;;;;;;5024953;28;20037;-81
2021/04/30 00:11:24;;;;;;;110.55;49.28;;;6.80;99.30;;;;;;5025473;28;20037;-83
2021/04/30 00:13:50;;;;;;;121.80;49.95;;;6.80;99.20;;;;;;5027918;28;20718;-79
2021/04/30 00:16:16;;;;;;;107.80;45.78;;;6.80;99.30;;;;;;5011188;28;20045;-79
2021/04/30 00:18:42;;;;;;;90.05;45.95;;;6.70;99.20;;;;;;5024924;28;20055;-79
2021/04/30 00:21:08;;;;;;;104.50;46.15;;;6.70;99.20;;;;;;5028663;28;20025;-79
2021/04/30 00:23:34;;;;;;;100.60;46.88;;;6.60;99.20;;;;;;5012108;28;20061;-79
2021/04/30 00:26:03;;;;;;;114.10;51.95;;;6.60;99.20;;;;;;5015393;28;20445;-79
2021/04/30 00:28:29;;;;;;;111.78;50.22;;;6.60;99.20;;;;;;5017013;28;20045;-79
2021/04/30 00:30:56;;;;;;;113.68;45.97;;;6.50;99.20;;;;;;5002795;28;20037;-79
2021/04/30 00:33:23;;;;;;;86.05;45.08;;;6.50;99.20;;;;;;5023619;28;20037;-82
2021/04/30 00:35:49;;;;;;;174.93;50.08;;;6.50;99.20;;;;;;5014833;28;20108;-83
2021/04/30 00:38:15;;;;;;;116.38;45.47;;;6.40;99.20;;;;;;5002668;28;20045;-79
2021/04/30 00:40:41;;;;;;;102.20;48.42;;;6.40;99.20;;;;;;5019904;28;20037;-79
2021/04/30 00:43:09;;;;;;;124.70;52.65;;;6.40;99.20;;;;;;4986745;28;20041;-82
2021/04/30 00:45:35;;;;;;;140.85;57.55;;;6.30;99.30;;;;;;5015677;28;20100;-80
2021/04/30 00:48:01;;;;;;;116.88;48.92;;;6.30;99.30;;;;;;5022954;28;20437;-82
2021/04/30 00:50:28;;;;;;;112.07;52.05;;;6.30;99.40;;;;;;5005843;28;20038;-80
2021/04/30 00:52:55;;;;;;;122.70;56.90;;;6.30;99.40;;;;;;5003399;28;20120;-79
2021/04/30 00:55:21;;;;;;;111.93;52.22;;;6.40;99.50;;;;;;5000915;28;20055;-80
2021/04/30 00:58:03;;;;;;;123.70;54.10;;;6.40;99.60;;;;;;5011562;28;20507;-81
2021/04/30 01:00:34;;;;;;;133.37;52.20;;;6.40;99.60;;;;;;5013569;28;20147;-83
2021/04/30 01:03:00;;;;;;;155.38;53.92;;;6.30;99.50;;;;;;5015718;28;20092;-82
2021/04/30 01:05:27;;;;;;;99.57;45.85;;;6.30;99.50;;;;;;5016145;28;20029;-80
2021/04/30 01:07:53;;;;;;;102.50;47.33;;;6.30;99.50;;;;;;5012059;28;20038;-79
2021/04/30 01:10:21;;;;;;;93.15;45.55;;;6.30;99.50;;;;;;5012626;28;20155;-80
2021/04/30 01:12:48;;;;;;;99.20;46.65;;;6.20;99.40;;;;;;5012377;28;20045;-79
2021/04/30 01:15:15;;;;;;;94.03;44.75;;;6.20;99.40;;;;;;4998978;28;20033;-79
2021/04/30 01:17:41;;;;;;;89.88;44.03;;;6.10;99.40;;;;;;5019626;28;21744;-80
2021/04/30 01:20:08;;;;;;;113.00;44.03;;;6.10;99.40;;;;;;5022383;28;20080;-82
2021/04/30 01:22:43;;;;;;;115.32;51.75;;;6.00;99.30;;;;;;5025485;28;20030;-82
2021/04/30 01:25:12;;;;;;;95.57;42.05;;;6.00;99.40;;;;;;4996322;28;20151;-82
2021/04/30 01:27:38;;;;;;;103.43;44.63;;;5.90;99.40;;;;;;5016278;28;20395;-79
2021/04/30 01:30:07;;;;;;;129.50;42.30;;;5.90;99.40;;;;;;5015804;28;20036;-80
2021/04/30 01:32:33;;;;;;;92.97;45.17;;;5.80;99.30;;;;;;5001844;28;20041;-82
2021/04/30 01:34:59;;;;;;;111.47;47.88;;;5.80;99.30;;;;;;5008009;28;20182;-79
2021/04/30 01:37:26;;;;;;;137.07;50.03;;;5.70;99.30;;;;;;4985117;28;20521;-81
2021/04/30 01:39:52;;;;;;;92.85;45.00;;;5.70;99.40;;;;;;5012005;28;20045;-79
2021/04/30 01:42:21;;;;;;;130.90;48.40;;;5.70;99.40;;;;;;5012888;28;20507;-79
2021/04/30 01:44:49;;;;;;;127.22;51.38;;;5.70;99.40;;;;;;5000364;28;20495;-79
2021/04/30 01:47:16;;;;;;;130.95;53.28;;;5.70;99.50;;;;;;5007774;28;20033;-81
2021/04/30 01:49:41;;;;;;;189.50;55.85;;;5.70;99.50;;;;;;5009936;28;20455;-79
2021/04/30 01:52:07;;;;;;;129.02;50.55;;;5.70;99.60;;;;;;5029518;28;20032;-80
2021/04/30 01:54:33;;;;;;;162.57;57.60;;;5.70;99.60;;;;;;5023206;28;20041;-80
2021/04/30 01:56:59;;;;;;;174.00;58.13;;;5.70;99.60;;;;;;5027841;28;20063;-82
2021/04/30 01:59:25;;;;;;;130.52;54.10;;;5.80;99.70;;;;;;4986533;28;20045;-82
2021/04/30 02:01:50;;;;;;;144.32;54.38;;;5.80;99.70;;;;;;5000812;28;20033;-79
2021/04/30 02:04:16;;;;;;;161.57;58.08;;;5.80;99.90;;;;;;5014827;28;20120;-80
2021/04/30 02:06:45;;;;;;;141.80;56.08;;;5.80;99.80;;;;;;5002883;28;20313;-80
2021/04/30 02:09:11;;;;;;;105.45;48.45;;;5.80;99.80;;;;;;5018559;28;20057;-79
2021/04/30 02:11:37;;;;;;;148.23;55.10;;;5.80;99.80;;;;;;5004309;28;20068;-79
2021/04/30 02:14:04;;;;;;;132.63;53.80;;;5.80;99.80;;;;;;5008214;28;20431;-79
2021/04/30 02:16:32;;;;;;;102.55;49.08;;;5.80;99.80;;;;;;5024374;28;20056;-81
2021/04/30 02:18:59;;;;;;;139.05;55.25;;;5.80;99.80;;;;;;5027767;28;20088;-81
2021/04/30 02:21:27;;;;;;;156.68;57.50;;;5.80;99.90;;;;;;5027273;28;20033;-82
2021/04/30 02:23:54;;;;;;;138.50;56.05;;;5.80;99.90;;;;;;5029162;28;20091;-81
2021/04/30 02:26:22;;;;;;;160.18;60.45;;;5.80;99.90;;;;;;5011929;28;20029;-79
2021/04/30 02:28:48;;;;;;;142.68;56.85;;;5.80;99.90;;;;;;5026699;28;20032;-79
2021/04/30 02:31:14;;;;;;;136.90;55.90;;;5.90;99.90;;;;;;5027654;28;20029;-79
2021/04/30 02:33:41;;;;;;;156.23;56.72;;;5.90;99.90;;;;;;5011809;28;20087;-79
2021/04/30 02:36:07;;;;;;;130.95;51.75;;;5.90;99.90;;;;;;4998270;28;20507;-80
2021/04/30 02:38:34;;;;;;;151.10;58.10;;;5.90;99.90;;;;;;5001999;28;20037;-83
2021/04/30 02:41:02;;;;;;;153.40;58.38;;;5.90;99.90;;;;;;5016353;28;20041;-80
2021/04/30 02:43:28;;;;;;;155.95;59.35;;;5.90;99.90;;;;;;5010639;28;20048;-83
2021/04/30 02:45:56;;;;;;;155.88;58.92;;;5.90;99.90;;;;;;5009287;28;20529;-81
2021/04/30 02:48:35;;;;;;;165.82;61.22;;;5.90;99.90;;;;;;5004818;28;20049;-83
2021/04/30 02:51:04;;;;;;;147.48;57.55;;;5.90;99.90;;;;;;4986324;28;20141;-80
2021/04/30 02:53:29;;;;;;;144.35;57.83;;;6.00;99.90;;;;;;5020154;28;20033;-80
2021/04/30 02:55:56;;;;;;;154.63;60.17;;;6.00;99.90;;;;;;5018246;28;20403;-80
2021/04/30 02:58:22;;;;;;;140.18;59.85;;;6.00;99.90;;;;;;5021891;28;20037;-80
2021/04/30 03:00:48;;;;;;;131.35;57.40;;;6.00;99.90;;;;;;5006121;28;20049;-80
2021/04/30 03:03:14;;;;;;;137.65;57.65;;;6.00;99.90;;;;;;5008164;28;20030;-81
2021/04/30 03:05:39;;;;;;;123.47;52.90;;;6.00;99.90;;;;;;5028544;28;20033;-80
2021/04/30 03:08:05;;;;;;;128.25;56.38;;;6.00;99.90;;;;;;5014627;28;20149;-83
2021/04/30 03:10:32;;;;;;;107.63;49.47;;;6.00;99.90;;;;;;5026250;28;20037;-80
2021/04/30 03:12:57;;;;;;;122.13;51.13;;;6.00;99.90;;;;;;5034508;28;20037;-80
2021/04/30 03:15:23;;;;;;;126.10;51.83;;;6.00;99.90;;;;;;5029263;28;20064;-80
2021/04/30 03:17:49;;;;;;;126.75;52.00;;;5.90;99.90;;;;;;4996499;28;20491;-80
2021/04/30 03:20:17;;;;;;;116.05;51.58;;;5.90;99.90;;;;;;5030030;28;20034;-80
2021/04/30 03:22:43;;;;;;;104.80;48.17;;;5.90;99.90;;;;;;5009795;28;20029;-81
2021/04/30 03:25:09;;;;;;;99.22;49.33;;;5.90;99.90;;;;;;5015902;28;20048;-83
2021/04/30 03:27:35;;;;;;;105.53;47.42;;;5.90;99.90;;;;;;5033307;28;20400;-80
2021/04/30 03:30:03;;;;;;;86.97;43.97;;;5.80;99.90;;;;;;5020058;28;20490;-83
2021/04/30 03:32:28;;;;;;;94.55;47.42;;;5.80;99.90;;;;;;4984785;28;20029;-80
2021/04/30 03:34:55;;;;;;;98.30;46.58;;;5.80;99.90;;;;;;5007239;28;20046;-80
2021/04/30 03:37:22;;;;;;;107.40;49.70;;;5.80;99.90;;;;;;5031010;28;20041;-79
2021/04/30 03:39:48;;;;;;;101.85;50.72;;;5.80;99.90;;;;;;5020733;28;20041;-83
2021/04/30 03:42:13;;;;;;;105.13;49.13;;;5.80;99.90;;;;;;5022389;28;20117;-83
2021/04/30 03:44:39;;;;;;;131.07;52.88;;;5.90;99.90;;;;;;4985843;28;20089;-80
2021/04/30 03:47:05;;;;;;;150.07;57.28;;;5.90;99.90;;;;;;5024375;28;20033;-80
2021/04/30 03:49:31;;;;;;;146.50;57.28;;;5.90;99.90;;;;;;5012565;28;20036;-80
2021/04/30 03:51:57;;;;;;;127.13;52.60;;;5.90;99.90;;;;;;5026486;28;20029;-82
2021/04/30 03:54:23;;;;;;;114.15;49.83;;;5.90;99.90;;;;;;5018092;28;20033;-79
2021/04/30 03:56:49;;;;;;;138.82;54.40;;;5.90;99.90;;;;;;5014259;28;20065;-83
2021/04/30 03:59:15;;;;;;;145.07;54.28;;;5.80;99.90;;;;;;5008190;28;20030;-82
2021/04/30 04:01:41;;;;;;;128.45;53.17;;;5.90;99.90;;;;;;5025356;28;20033;-83
2021/04/30 04:04:06;;;;;;;112.25;53.47;;;5.90;99.90;;;;;;4994919;28;20072;-80
2021/04/30 04:06:32;;;;;;;115.20;52.08;;;5.90;99.90;;;;;;5028166;28;20045;-83
2021/04/30 04:08:58;;;;;;;122.03;51.85;;;5.90;99.90;;;;;;4999229;28;20034;-81
2021/04/30 04:11:24;;;;;;;128.93;57.53;;;5.90;99.90;;;;;;5000186;28;20373;-79
2021/04/30 04:13:50;;;;;;;155.88;58.85;;;6.00;99.90;;;;;;5021735;28;20030;-80
2021/04/30 04:16:16;;;;;;;120.55;54.92;;;6.00;99.90;;;;;;5023003;28;20041;-82
2021/04/30 04:18:42;;;;;;;136.02;53.95;;;6.10;99.90;;;;;;5008497;28;20140;-79
2021/04/30 04:21:07;;;;;;;125.00;55.30;;;6.10;99.90;;;;;;5019270;28;20099;-79
2021/04/30 04:23:33;;;;;;;142.73;56.90;;;6.00;99.90;;;;;;5002342;28;20061;-79
2021/04/30 04:25:59;;;;;;;130.18;58.70;;;6.10;99.90;;;;;;5021643;28;20053;-83
2021/04/30 04:28:25;;;;;;;140.25;57.25;;;6.10;99.90;;;;;;5034643;28;20038;-82
2021/04/30 04:30:52;;;;;;;133.57;55.47;;;6.20;99.90;;;;;;4985615;28;20253;-80
2021/04/30 04:33:19;;;;;;;132.27;56.78;;;6.20;99.90;;;;;;5005413;28;20533;-80
2021/04/30 04:35:45;;;;;;;132.80;55.00;;;6.20;99.90;;;;;;5010318;28;20106;-80
2021/04/30 04:38:11;;;;;;;124.60;54.97;;;6.20;99.90;;;;;;5000606;28;20046;-79
2021/04/30 04:40:36;;;;;;;123.55;55.42;;;6.20;99.90;;;;;;5021179;28;20037;-80
2021/04/30 04:43:02;;;;;;;118.85;54.17;;;6.20;99.90;;;;;;5003435;28;20405;-80
2021/04/30 04:45:28;;;;;;;117.60;55.15;;;6.30;99.90;;;;;;5037021;28;20053;-79
2021/04/30 04:47:54;;;;;;;121.68;54.75;;;6.40;99.90;;;;;;5007238;28;20459;-79
2021/04/30 04:50:20;;;;;;;135.75;55.47;;;6.30;99.90;;;;;;5028077;28;20128;-82
2021/04/30 04:52:46;;;;;;;125.05;53.33;;;6.30;99.90;;;;;;5030899;28;20040;-81
2021/04/30 04:55:16;;;;;;;96.18;48.80;;;6.40;99.90;;;;;;5029635;28;20258;-79
2021/04/30 04:57:42;;;;;;;127.72;53.08;;;6.40;99.90;;;;;;5027448;28;20034;-79
2021/04/30 05:00:09;;;;;;;119.22;52.83;;;6.40;99.90;;;;;;5033147;28;20042;-81
2021/04/30 05:02:35;;;;;;;119.07;52.58;;;6.40;99.90;;;;;;5018718;28;20030;-81
2021/04/30 05:05:02;;;;;;;125.03;54.15;;;6.50;99.90;;;;;;5025630;28;20037;-82
2021/04/30 05:07:28;;;;;;;120.50;55.22;;;6.50;99.90;;;;;;5017897;28;20041;-80
2021/04/30 05:09:54;;;;;;;121.82;55.92;;;6.60;99.90;;;;;;5007417;28;20034;-80
2021/04/30 05:12:20;;;;;;;112.28;53.40;;;6.60;99.90;;;;;;5015953;28;20064;-81
2021/04/30 05:14:45;;;;;;;131.20;55.55;;;6.70;99.90;;;;;;5009167;28;20029;-81
2021/04/30 05:17:12;;;;;;;105.53;52.53;;;6.70;99.90;;;;;;5012748;28;20040;-81
2021/04/30 05:19:39;;;;;;;116.88;55.38;;;6.80;99.90;;;;;;5021231;28;20057;-83
2021/04/30 05:22:08;;;;;;;93.88;49.17;;;6.80;99.90;;;;;;5035476;28;20029;-84
2021/04/30 05:24:34;;;;;;;106.68;51.85;;;6.80;99.90;;;;;;5031745;28;20029;-80
2021/04/30 05:27:02;;;;;;;113.47;54.47;;;6.90;99.90;;;;;;5035569;28;20116;-80
2021/04/30 05:29:28;;;;;;;100.03;51.88;;;6.90;99.90;;;;;;5013891;28;20097;-85
2021/04/30 05:31:54;;;;;;;98.70;50.50;;;7.00;99.90;;;;;;5017282;28;20133;-80
2021/04/30 05:34:19;;;;;;;105.95;52.15;;;7.00;99.90;;;;;;5029450;28;20049;-83
2021/04/30 05:36:45;;;;;;;109.00;53.05;;;7.10;99.90;;;;;;5023817;28;20033;-81
2021/04/30 05:39:11;;;;;;;107.28;52.10;;;7.10;99.90;;;;;;5000877;28;20041;-85
2021/04/30 05:41:37;;;;;;;119.68;53.30;;;7.10;99.90;;;;;;5020107;28;20037;-79
2021/04/30 05:44:03;;;;;;;112.85;54.22;;;7.20;99.90;;;;;;5016568;28;20033;-80
2021/04/30 05:46:28;;;;;;;111.35;53.20;;;7.20;99.90;;;;;;5034373;28;20053;-81
2021/04/30 05:48:55;;;;;;;112.82;53.28;;;7.30;99.90;;;;;;5024185;28;20033;-79
2021/04/30 05:51:21;;;;;;;146.90;59.10;;;7.30;99.90;;;;;;4994816;28;20735;-82
2021/04/30 05:53:47;;;;;;;104.63;52.55;;;7.30;99.90;;;;;;5019054;28;20038;-81
2021/04/30 05:56:12;;;;;;;136.07;55.88;;;7.40;99.90;;;;;;4973674;28;20034;-82
2021/04/30 05:58:38;;;;;;;123.70;56.17;;;7.40;99.90;;;;;;5019908;28;20037;-79
2021/04/30 06:01:04;;;;;;;112.90;52.25;;;7.50;99.90;;;;;;5021838;28;20034;-79
2021/04/30 06:03:30;;;;;;;111.43;53.45;;;7.50;99.90;;;;;;5017678;28;20490;-80
2021/04/30 06:05:55;;;;;;;123.05;53.63;;;7.60;99.90;;;;;;5002305;28;20522;-82
2021/04/30 06:08:21;;;;;;;79.75;45.92;;;7.70;99.90;;;;;;5013079;28;20037;-84
2021/04/30 06:10:47;;;;;;;110.95;50.08;;;7.80;99.90;;;;;;5005585;28;20041;-82
2021/04/30 06:13:13;;;;;;;79.60;42.38;;;7.80;99.90;;;;;;4995035;28;20084;-81
2021/04/30 06:15:39;;;;;;;74.32;42.25;;;7.80;99.90;;;;;;5021833;28;20048;-82
2021/04/30 06:18:05;;;;;;;104.15;48.83;;;7.90;99.90;;;;;;4998429;28;20125;-84
2021/04/30 06:20:30;;;;;;;95.05;49.63;;;8.00;99.90;;;;;;5006173;28;20860;-80
2021/04/30 06:22:56;;;;;;;75.00;43.95;;;8.10;99.90;;;;;;5019060;28;20037;-81
2021/04/30 06:25:22;;;;;;;99.30;48.97;;;8.20;99.90;;;;;;5004816;28;20037;-82
2021/04/30 06:27:48;;;;;;;86.35;46.08;;;8.30;99.90;;;;;;5010812;28;20041;-81
2021/04/30 06:30:14;;;;;;;81.40;43.58;;;8.40;99.90;;;;;;5002467;28;20034;-82
2021/04/30 06:32:43;;;;;;;74.47;37.75;;;8.40;99.90;;;;;;5022720;28;20053;-82
2021/04/30 06:35:10;;;;;;;90.78;44.03;;;8.50;99.90;;;;;;5003661;28;20044;-81
2021/04/30 06:37:37;;;;;;;66.03;37.47;;;8.60;99.90;;;;;;5018546;28;20045;-79
2021/04/30 06:40:04;;;;;;;70.13;39.70;;;8.60;99.90;;;;;;5021054;28;20125;-83
2021/04/30 06:42:29;;;;;;;74.50;40.08;;;8.60;99.90;;;;;;5024829;28;20091;-84
2021/04/30 06:44:56;;;;;;;56.30;33.15;;;8.70;99.90;;;;;;5030153;28;20030;-85
2021/04/30 06:47:21;;;;;;;77.97;39.22;;;8.70;99.90;;;;;;5011978;28;20483;-84
2021/04/30 06:49:48;;;;;;;78.20;36.70;;;8.70;99.90;;;;;;5007058;28;20488;-83
2021/04/30 06:52:14;;;;;;;81.15;39.90;;;8.80;99.90;;;;;;5016873;28;20036;-83
2021/04/30 06:54:40;;;;;;;67.07;34.38;;;8.70;99.90;;;;;;5005095;28;20057;-81
2021/04/30 06:57:06;;;;;;;69.97;38.15;;;8.80;99.90;;;;;;5000689;28;20424;-80
2021/04/30 06:59:32;;;;;;;63.55;36.17;;;8.80;99.90;;;;;;4989830;28;20029;-80
2021/04/30 07:01:57;;;;;;;56.33;31.52;;;8.80;99.90;;;;;;4991887;28;20072;-80
2021/04/30 07:04:23;;;;;;;60.80;29.60;;;8.80;99.90;;;;;;5006788;28;20045;-78
2021/04/30 07:06:49;;;;;;;53.55;32.00;;;8.80;99.90;;;;;;5013807;28;20458;-81
2021/04/30 07:09:15;;;;;;;72.20;37.97;;;8.90;99.90;;;;;;4992929;28;20025;-83
2021/04/30 07:11:41;;;;;;;60.65;34.35;;;8.90;99.90;;;;;;5006213;28;20385;-80
2021/04/30 07:14:07;;;;;;;56.03;32.35;;;9.00;99.90;;;;;;5026016;28;20029;-82
2021/04/30 07:16:33;;;;;;;67.25;35.00;;;9.00;99.90;;;;;;5019743;28;20147;-80
2021/04/30 07:18:59;;;;;;;59.67;33.28;;;9.10;99.90;;;;;;5026229;28;20044;-80
2021/04/30 07:21:25;;;;;;;54.00;31.70;;;9.10;99.90;;;;;;5018129;28;20511;-79
2021/04/30 07:23:51;;;;;;;48.83;30.83;;;9.20;99.90;;;;;;5026612;28;20522;-80
2021/04/30 07:26:17;;;;;;;63.00;35.40;;;9.10;99.90;;;;;;5021401;28;20030;-80
2021/04/30 07:28:43;;;;;;;54.10;32.72;;;9.10;99.90;;;;;;5025146;28;20040;-79
2021/04/30 07:31:09;;;;;;;49.70;30.50;;;9.20;99.90;;;;;;5002473;28;20407;-79
2021/04/30 07:33:43;;;;;;;52.08;31.48;;;9.20;99.90;;;;;;5023474;28;20030;-83
2021/04/30 07:36:09;;;;;;;51.75;30.35;;;9.20;99.90;;;;;;5008846;28;20048;-81
2021/04/30 07:38:34;;;;;;;46.58;28.13;;;9.30;99.90;;;;;;4990459;28;20408;-80
2021/04/30 07:41:00;;;;;;;50.83;30.80;;;9.30;99.90;;;;;;5004070;28;20041;-80
2021/04/30 07:43:27;;;;;;;59.95;35.50;;;9.40;99.90;;;;;;5019796;28;20045;-79
2021/04/30 07:45:53;;;;;;;53.28;33.08;;;9.50;99.90;;;;;;5005545;28;20045;-80
2021/04/30 07:48:19;;;;;;;57.65;31.77;;;9.50;99.90;;;;;;5018000;28;20049;-80
2021/04/30 07:50:46;;;;;;;45.45;27.33;;;9.60;99.90;;;;;;4981455;28;20029;-82
2021/04/30 07:53:11;;;;;;;51.92;29.20;;;9.70;99.90;;;;;;5003158;28;20492;-80
2021/04/30 07:55:37;;;;;;;45.15;28.42;;;9.70;99.90;;;;;;5027495;28;20044;-81
2021/04/30 07:58:03;;;;;;;52.58;29.00;;;9.80;99.90;;;;;;5016998;28;20038;-80
2021/04/30 08:00:30;;;;;;;52.55;29.67;;;9.90;99.90;;;;;;5020608;28;20091;-80
2021/04/30 08:02:56;;;;;;;48.30;27.75;;;9.90;99.90;;;;;;5006540;28;20030;-80
2021/04/30 08:05:23;;;;;;;43.95;25.98;;;10.00;99.80;;;;;;5023406;28;20037;-80
2021/04/30 08:07:49;;;;;;;48.40;26.75;;;10.10;99.70;;;;;;5023546;28;20157;-82
2021/04/30 08:10:15;;;;;;;42.13;26.15;;;10.20;99.50;;;;;;5006727;28;20116;-81
2021/04/30 08:12:41;;;;;;;52.35;30.88;;;10.20;99.30;;;;;;5007906;28;20253;-80
2021/04/30 08:15:08;;;;;;;42.28;26.42;;;10.20;99.30;;;;;;5022531;28;20043;-81
2021/04/30 08:17:34;;;;;;;49.25;28.27;;;10.30;99.30;;;;;;5019170;28;20095;-80
2021/04/30 08:20:02;;;;;;;38.38;23.83;;;10.30;99.10;;;;;;4987739;28;20495;-81
2021/04/30 08:22:28;;;;;;;42.75;22.60;;;10.40;99.00;;;;;;4986135;28;21102;-83
2021/04/30 08:24:55;;;;;;;43.70;25.15;;;10.40;98.80;;;;;;5020675;28;20049;-81
2021/04/30 08:27:22;;;;;;;42.00;25.58;;;10.50;98.60;;;;;;5007649;28;20038;-80
2021/04/30 08:29:49;;;;;;;36.53;24.27;;;10.60;98.70;;;;;;5014906;28;20046;-81
2021/04/30 08:32:15;;;;;;;46.45;23.20;;;10.70;98.60;;;;;;5009422;28;20103;-80
2021/04/30 08:34:41;;;;;;;44.10;27.27;;;10.90;98.30;;;;;;5024379;28;20120;-81
2021/04/30 08:37:07;;;;;;;35.10;21.10;;;11.10;98.30;;;;;;5019196;28;20044;-83
2021/04/30 08:39:33;;;;;;;29.83;17.92;;;11.20;98.10;;;;;;5002909;28;20089;-82
2021/04/30 08:41:59;;;;;;;34.25;21.27;;;11.30;97.20;;;;;;5020532;28;20124;-80
2021/04/30 08:44:25;;;;;;;38.65;19.73;;;11.30;97.20;;;;;;5006838;28;20124;-79
2021/04/30 08:46:51;;;;;;;33.90;19.85;;;11.40;97.50;;;;;;5015117;28;20550;-79
2021/04/30 08:49:17;;;;;;;34.97;16.92;;;11.60;97.30;;;;;;5004487;28;20109;-80
2021/04/30 08:51:44;;;;;;;31.88;17.27;;;11.70;96.60;;;;;;5002332;28;20038;-80
2021/04/30 08:54:10;;;;;;;26.55;15.98;;;11.70;96.40;;;;;;5018238;28;20046;-85
2021/04/30 08:56:44;;;;;;;33.08;18.10;;;11.80;96.50;;;;;;4988956;28;20053;-80
2021/04/30 08:59:11;;;;;;;28.40;16.23;;;12.00;96.10;;;;;;5019929;28;20046;-79
2021/04/30 09:01:37;;;;;;;22.40;13.95;;;12.20;95.60;;;;;;5004144;28;20472;-80
2021/04/30 09:04:07;;;;;;;24.63;15.60;;;12.30;95.70;;;;;;4987089;28;20047;-79
2021/04/30 09:06:38;;;;;;;34.33;18.38;;;12.40;95.50;;;;;;5021243;28;20296;-83
2021/04/30 09:09:08;;;;;;;24.42;16.10;;;12.40;95.40;;;;;;5040480;28;20037;-81
2021/04/30 09:11:36;;;;;;;30.95;16.92;;;12.40;95.00;;;;;;5019837;28;20037;-80
2021/04/30 09:14:21;;;;;;;24.00;15.23;;;12.40;95.20;;;;;;5018505;28;20044;-83
2021/04/30 09:17:09;;;;;;;29.55;18.65;;;12.40;94.00;;;;;;5022140;28;20465;-81
2021/04/30 09:20:00;;;;;;;31.10;16.42;;;12.40;94.60;;;;;;5021354;28;20041;-81
2021/04/30 09:22:36;;;;;;;27.77;16.50;;;12.30;93.70;;;;;;4985060;28;20622;-80
2021/04/30 09:25:06;;;;;;;27.25;15.85;;;12.30;94.40;;;;;;5024240;28;20122;-82
2021/04/30 09:27:41;;;;;;;29.95;16.33;;;12.20;94.20;;;;;;5017712;28;20034;-84
2021/04/30 09:30:26;;;;;;;25.88;16.17;;;12.10;94.10;;;;;;5023413;28;20036;-81
2021/04/30 09:33:31;;;;;;;27.30;16.13;;;12.00;93.80;;;;;;5021150;28;20037;-83
2021/04/30 09:36:00;;;;;;;26.90;15.55;;;12.10;93.60;;;;;;4933837;28;20077;-83
2021/04/30 09:38:31;;;;;;;23.33;15.43;;;12.10;94.40;;;;;;4976775;28;20035;-80
2021/04/30 09:41:13;;;;;;;22.00;12.82;;;12.10;94.50;;;;;;4972139;28;20053;-82
2021/04/30 09:43:50;;;;;;;26.45;14.10;;;12.20;93.40;;;;;;5020623;28;20033;-84
2021/04/30 09:46:33;;;;;;;23.00;13.25;;;12.30;93.40;;;;;;5018239;28;20709;-79
2021/04/30 09:49:08;;;;;;;22.83;14.82;;;12.20;93.20;;;;;;5018197;28;20116;-79
2021/04/30 09:51:54;;;;;;;24.17;14.43;;;12.20;93.40;;;;;;5022763;28;20068;-81
2021/04/30 09:54:26;;;;;;;29.02;14.98;;;12.30;93.10;;;;;;5007918;28;21796;-79
2021/04/30 09:57:17;;;;;;;26.33;13.82;;;12.30;93.30;;;;;;5014991;28;20033;-82
2021/04/30 10:00:02;;;;;;;26.08;13.27;;;12.30;93.10;;;;;;5026449;28;20084;-80
2021/04/30 10:02:29;;;;;;;26.45;13.88;;;12.30;93.00;;;;;;5020848;28;20168;-87
2021/04/30 10:04:58;;;;;;;22.63;14.27;;;12.30;93.00;;;;;;5004757;28;20080;-82
2021/04/30 10:07:38;;;;;;;19.65;13.35;;;12.40;92.60;;;;;;5017807;28;20240;-78
2021/04/30 10:10:11;;;;;;;23.50;14.35;;;12.40;91.30;;;;;;5004779;28;20056;-79
2021/04/30 10:12:42;;;;;;;25.13;13.05;;;12.50;92.20;;;;;;5019760;28;20030;-82
2021/04/30 10:15:10;;;;;;;24.02;14.20;;;12.50;91.40;;;;;;5024471;28;20042;-82
2021/04/30 10:17:37;;;;;;;22.98;14.40;;;12.50;92.10;;;;;;4999692;28;20033;-80
2021/04/30 10:20:05;;;;;;;20.60;12.25;;;12.50;92.00;;;;;;5017536;28;20050;-79
2021/04/30 10:22:34;;;;;;;20.35;12.90;;;12.50;91.20;;;;;;5018481;28;20034;-86
2021/04/30 10:25:03;;;;;;;21.60;13.48;;;12.40;91.00;;;;;;5020073;28;20486;-80
2021/04/30 10:27:37;;;;;;;19.73;13.40;;;12.40;91.20;;;;;;5017077;28;20045;-79
2021/04/30 10:30:22;;;;;;;16.20;13.10;;;12.30;91.30;;;;;;5022041;28;20038;-80
2021/04/30 10:32:53;;;;;;;19.50;12.25;;;12.40;91.80;;;;;;5019931;28;20041;-83
2021/04/30 10:35:55;;;;;;;21.48;13.02;;;12.30;90.60;;;;;;5017413;28;20068;-81
2021/04/30 10:38:25;;;;;;;20.15;13.05;;;12.20;90.60;;;;;;5016687;28;20717;-81
2021/04/30 10:40:52;;;;;;;22.55;13.00;;;12.10;91.40;;;;;;5014209;28;20029;-83
2021/04/30 10:43:20;;;;;;;22.15;13.80;;;12.00;91.20;;;;;;5016615;28;20176;-79
2021/04/30 10:46:05;;;;;;;17.58;14.00;;;12.10;91.40;;;;;;5018958;28;20072;-80
2021/04/30 10:48:33;;;;;;;18.95;12.85;;;12.10;91.20;;;;;;5011073;28;20033;-86
2021/04/30 10:51:14;;;;;;;20.63;13.25;;;12.10;91.30;;;;;;5006681;28;20046;-86
2021/04/30 10:53:43;;;;;;;22.20;12.93;;;12.10;90.70;;;;;;5021199;28;20649;-83
2021/04/30 10:56:33;;;;;;;27.65;14.73;;;12.10;91.00;;;;;;5023957;28;20030;-84
2021/04/30 10:58:59;;;;;;;24.10;14.80;;;12.10;90.60;;;;;;5014846;28;20041;-79
2021/04/30 11:01:28;;;;;;;19.90;15.23;;;12.00;91.20;;;;;;5019274;28;20447;-80
2021/04/30 11:04:09;;;;;;;22.52;14.68;;;11.90;91.50;;;;;;5012914;28;20041;-84
2021/04/30 11:06:37;;;;;;;20.17;13.75;;;11.90;91.00;;;;;;5018613;28;20051;-81
2021/04/30 11:09:14;;;;;;;19.10;14.27;;;11.80;91.00;;;;;;5021094;28;20056;-81
2021/04/30 11:11:45;;;;;;;22.00;14.60;;;11.80;91.00;;;;;;5020744;28;20059;-79
2021/04/30 11:14:26;;;;;;;21.25;14.65;;;11.70;90.70;;;;;;5024360;28;20041;-79
2021/04/30 11:16:53;;;;;;;19.92;15.40;;;11.60;90.90;;;;;;5022802;28;22034;-80
2021/04/30 11:19:21;;;;;;;22.58;15.43;;;11.60;91.30;;;;;;5018964;28;20072;-81
2021/04/30 11:21:52;;;;;;;21.27;14.98;;;11.60;91.30;;;;;;5024722;28;20108;-81
2021/04/30 11:24:27;;;;;;;22.23;15.18;;;11.60;91.40;;;;;;5022551;28;20029;-79
2021/04/30 11:27:08;;;;;;;22.45;14.80;;;11.50;91.10;;;;;;5026893;28;20041;-80
2021/04/30 11:29:34;;;;;;;19.60;14.85;;;11.50;91.30;;;;;;5021271;28;20105;-81
2021/04/30 11:32:23;;;;;;;20.85;13.95;;;11.50;91.50;;;;;;5020990;28;20364;-80
2021/04/30 11:34:54;;;;;;;25.25;15.23;;;11.50;91.10;;;;;;5029686;28;20491;-79
2021/04/30 11:37:21;;;;;;;23.73;15.70;;;11.50;91.60;;;;;;5031716;28;20404;-84
2021/04/30 11:39:48;;;;;;;22.73;15.95;;;11.50;91.80;;;;;;5025655;28;20038;-79
2021/04/30 11:42:14;;;;;;;21.98;16.80;;;11.50;91.70;;;;;;5014716;28;20045;-83
2021/04/30 11:44:41;;;;;;;25.63;17.52;;;11.40;91.60;;;;;;4999591;28;20117;-82
2021/04/30 11:47:10;;;;;;;33.90;18.38;;;11.40;92.10;;;;;;5005643;28;20117;-80
2021/04/30 11:49:40;;;;;;;23.05;18.15;;;11.40;92.30;;;;;;5010406;28;20495;-80
2021/04/30 11:52:11;;;;;;;25.92;19.00;;;11.30;92.60;;;;;;5024629;28;20037;-82
2021/04/30 11:54:39;;;;;;;29.52;21.63;;;11.20;92.80;;;;;;5032768;28;20260;-80
2021/04/30 11:57:10;;;;;;;31.27;23.25;;;11.20;93.10;;;;;;5031480;28;20191;-80
2021/04/30 11:59:41;;;;;;;28.23;19.85;;;11.20;93.40;;;;;;5015365;28;20552;-81
2021/04/30 12:02:10;;;;;;;32.75;20.98;;;11.10;93.60;;;;;;5011634;28;20140;-84
2021/04/30 12:04:40;;;;;;;34.10;19.77;;;11.00;93.80;;;;;;5011876;28;20066;-81
2021/04/30 12:07:08;;;;;;;25.13;17.98;;;10.90;93.90;;;;;;5014881;28;20144;-79
2021/04/30 12:09:34;;;;;;;29.58;19.05;;;10.90;93.80;;;;;;5022949;28;20045;-79
2021/04/30 12:12:20;;;;;;;29.80;19.38;;;10.90;93.90;;;;;;5027349;28;20042;-81
2021/04/30 12:14:55;;;;;;;31.13;20.10;;;10.90;93.60;;;;;;5025936;28;20247;-80
2021/04/30 12:17:31;;;;;;;31.52;19.65;;;11.00;94.00;;;;;;5016183;28;20462;-78
2021/04/30 12:20:15;;;;;;;35.42;22.77;;;11.10;94.00;;;;;;5025838;28;20030;-79
2021/04/30 12:22:54;;;;;;;27.17;20.90;;;11.30;94.10;;;;;;5018068;28;20048;-83
2021/04/30 12:25:30;;;;;;;25.00;18.77;;;11.60;94.30;;;;;;5029356;28;20069;-83
2021/04/30 12:28:40;;;;;;;27.33;18.48;;;11.90;94.20;;;;;;5031001;28;20037;-80
2021/04/30 12:31:08;;;;;;;28.08;17.98;;;12.20;93.80;;;;;;5008323;28;20038;-80
2021/04/30 12:33:40;;;;;;;27.58;18.75;;;12.50;93.90;;;;;;4999974;28;20507;-80
2021/04/30 12:36:11;;;;;;;25.40;18.77;;;12.80;93.60;;;;;;5023188;28;20111;-81